sensor_id;sensor_type;location;lat;lon;timestamp;P1;durP1;ratioP1;P2;durP2;ratioP2
19446;SDS011;9862;49.462;11.054;2022-12-20T00:01:34;34.15;;;17.83;;
19446;SDS011;9862;49.462;11.054;2022-12-20T00:04:03;32.28;;;17.17;;
19446;SDS011;9862;49.462;11.054;2022-12-20T00:06:30;32.53;;;17.50;;
19446;SDS011;9862;49.462;11.054;2022-12-20T00:08:59;35.95;;;17.63;;
19446;SDS011;9862;49.462;11.054;2022-12-20T00:11:27;36.90;;;17.27;;
19446;SDS011;9862;49.462;11.054;2022-12-20T00:13:54;32.97;;;16.80;;
19446;SDS011;9862;49.462;11.054;2022-12-20T00:16:22;34.03;;;16.85;;
19446;SDS011;9862;49.462;11.054;2022-12-20T00:18:50;35.50;;;16.90;;
19446;SDS011;9862;49.462;11.054;2022-12-20T00:21:19;34.42;;;16.70;;
19446;SDS011;9862;49.462;11.054;2022-12-20T00:23:47;35.88;;;18.20;;
19446;SDS011;9862;49.462;11.054;2022-12-20T00:26:15;35.05;;;16.50;;
19446;SDS011;9862;49.462;11.054;2022-12-20T00:28:43;30.80;;;16.70;;
19446;SDS011;9862;49.462;11.054;2022-12-20T00:31:14;33.53;;;17.10;;
19446;SDS011;9862;49.462;11.054;2022-12-20T00:33:43;33.63;;;16.33;;
19446;SDS011;9862;49.462;11.054;2022-12-20T00:36:11;31.08;;;16.45;;
19446;SDS011;9862;49.462;11.054;2022-12-20T00:38:40;35.80;;;17.52;;
19446;SDS011;9862;49.462;11.054;2022-12-20T00:41:07;32.72;;;17.27;;
19446;SDS011;9862;49.462;11.054;2022-12-20T00:43:36;35.00;;;17.10;;
19446;SDS011;9862;49.462;11.054;2022-12-20T00:46:03;31.15;;;15.93;;
19446;SDS011;9862;49.462;11.054;2022-12-20T00:48:30;30.95;;;16.13;;
19446;SDS011;9862;49.462;11.054;2022-12-20T00:50:58;31.17;;;15.85;;
19446;SDS011;9862;49.462;11.054;2022-12-20T00:53:25;35.35;;;16.42;;
19446;SDS011;9862;49.462;11.054;2022-12-20T00:55:54;32.38;;;17.20;;
19446;SDS011;9862;49.462;11.054;2022-12-20T00:58:21;33.00;;;16.48;;
19446;SDS011;9862;49.462;11.054;2022-12-20T01:00:48;35.58;;;17.83;;
19446;SDS011;9862;49.462;11.054;2022-12-20T01:03:15;36.00;;;16.65;;
19446;SDS011;9862;49.462;11.054;2022-12-20T01:05:48;32.03;;;16.52;;
19446;SDS011;9862;49.462;11.054;2022-12-20T01:08:15;33.50;;;17.17;;
19446;SDS011;9862;49.462;11.054;2022-12-20T01:10:42;34.78;;;16.92;;
19446;SDS011;9862;49.462;11.054;2022-12-20T01:13:10;34.78;;;16.80;;
19446;SDS011;9862;49.462;11.054;2022-12-20T01:15:36;32.97;;;16.92;;
19446;SDS011;9862;49.462;11.054;2022-12-20T01:18:03;32.30;;;16.90;;
19446;SDS011;9862;49.462;11.054;2022-12-20T01:20:33;30.48;;;15.98;;
19446;SDS011;9862;49.462;11.054;2022-12-20T01:22:59;30.90;;;16.17;;
19446;SDS011;9862;49.462;11.054;2022-12-20T01:25:26;32.03;;;17.30;;
19446;SDS011;9862;49.462;11.054;2022-12-20T01:27:53;37.33;;;18.15;;
19446;SDS011;9862;49.462;11.054;2022-12-20T01:30:21;32.97;;;17.20;;
19446;SDS011;9862;49.462;11.054;2022-12-20T01:32:47;30.27;;;15.38;;
19446;SDS011;9862;49.462;11.054;2022-12-20T01:35:14;33.47;;;16.25;;
19446;SDS011;9862;49.462;11.054;2022-12-20T01:37:41;33.30;;;17.13;;
19446;SDS011;9862;49.462;11.054;2022-12-20T01:40:08;31.25;;;16.40;;
19446;SDS011;9862;49.462;11.054;2022-12-20T01:42:35;29.70;;;15.30;;
19446;SDS011;9862;49.462;11.054;2022-12-20T01:45:02;32.17;;;16.90;;
19446;SDS011;9862;49.462;11.054;2022-12-20T01:47:52;32.40;;;16.38;;
19446;SDS011;9862;49.462;11.054;2022-12-20T01:50:20;32.05;;;16.75;;
19446;SDS011;9862;49.462;11.054;2022-12-20T01:52:47;43.72;;;20.45;;
19446;SDS011;9862;49.462;11.054;2022-12-20T01:55:15;41.33;;;19.98;;
19446;SDS011;9862;49.462;11.054;2022-12-20T01:57:45;43.28;;;22.65;;
19446;SDS011;9862;49.462;11.054;2022-12-20T02:00:15;38.63;;;20.27;;
19446;SDS011;9862;49.462;11.054;2022-12-20T02:02:43;40.00;;;18.35;;
19446;SDS011;9862;49.462;11.054;2022-12-20T02:05:13;35.60;;;18.92;;
19446;SDS011;9862;49.462;11.054;2022-12-20T02:07:40;47.83;;;24.25;;
19446;SDS011;9862;49.462;11.054;2022-12-20T02:10:09;37.47;;;18.95;;
19446;SDS011;9862;49.462;11.054;2022-12-20T02:12:38;34.75;;;18.75;;
19446;SDS011;9862;49.462;11.054;2022-12-20T02:15:20;36.88;;;19.15;;
19446;SDS011;9862;49.462;11.054;2022-12-20T02:17:59;36.17;;;17.85;;
19446;SDS011;9862;49.462;11.054;2022-12-20T02:24:12;33.70;;;16.23;;
19446;SDS011;9862;49.462;11.054;2022-12-20T02:30:00;34.17;;;18.95;;
19446;SDS011;9862;49.462;11.054;2022-12-20T02:32:31;32.00;;;17.13;;
19446;SDS011;9862;49.462;11.054;2022-12-20T02:35:03;32.45;;;17.98;;
19446;SDS011;9862;49.462;11.054;2022-12-20T02:37:31;36.60;;;17.92;;
19446;SDS011;9862;49.462;11.054;2022-12-20T02:39:58;31.10;;;17.25;;
19446;SDS011;9862;49.462;11.054;2022-12-20T02:42:25;29.45;;;15.93;;
19446;SDS011;9862;49.462;11.054;2022-12-20T02:44:54;31.13;;;15.88;;
19446;SDS011;9862;49.462;11.054;2022-12-20T02:47:44;35.30;;;17.77;;
19446;SDS011;9862;49.462;11.054;2022-12-20T02:50:16;39.65;;;18.48;;
19446;SDS011;9862;49.462;11.054;2022-12-20T02:52:46;31.05;;;18.13;;
19446;SDS011;9862;49.462;11.054;2022-12-20T02:55:13;31.98;;;16.85;;
19446;SDS011;9862;49.462;11.054;2022-12-20T02:57:42;32.25;;;15.75;;
19446;SDS011;9862;49.462;11.054;2022-12-20T03:00:14;33.08;;;16.92;;
19446;SDS011;9862;49.462;11.054;2022-12-20T03:02:45;32.70;;;16.35;;
19446;SDS011;9862;49.462;11.054;2022-12-20T03:05:31;28.38;;;15.32;;
19446;SDS011;9862;49.462;11.054;2022-12-20T03:07:59;31.65;;;16.65;;
19446;SDS011;9862;49.462;11.054;2022-12-20T03:10:26;31.77;;;16.13;;
19446;SDS011;9862;49.462;11.054;2022-12-20T03:12:53;33.30;;;17.33;;
19446;SDS011;9862;49.462;11.054;2022-12-20T03:15:20;35.92;;;17.48;;
19446;SDS011;9862;49.462;11.054;2022-12-20T03:17:48;28.15;;;15.95;;
19446;SDS011;9862;49.462;11.054;2022-12-20T03:20:16;30.70;;;16.45;;
19446;SDS011;9862;49.462;11.054;2022-12-20T03:22:44;35.45;;;17.15;;
19446;SDS011;9862;49.462;11.054;2022-12-20T03:25:11;30.48;;;16.98;;
19446;SDS011;9862;49.462;11.054;2022-12-20T03:27:38;31.80;;;16.15;;
19446;SDS011;9862;49.462;11.054;2022-12-20T03:30:05;28.77;;;15.88;;
19446;SDS011;9862;49.462;11.054;2022-12-20T03:32:33;31.05;;;17.25;;
19446;SDS011;9862;49.462;11.054;2022-12-20T03:35:01;33.00;;;17.08;;
19446;SDS011;9862;49.462;11.054;2022-12-20T03:37:27;46.58;;;22.92;;
19446;SDS011;9862;49.462;11.054;2022-12-20T03:39:54;43.03;;;20.67;;
19446;SDS011;9862;49.462;11.054;2022-12-20T03:42:21;39.70;;;18.63;;
19446;SDS011;9862;49.462;11.054;2022-12-20T03:44:47;37.55;;;19.85;;
19446;SDS011;9862;49.462;11.054;2022-12-20T03:47:14;36.13;;;19.00;;
19446;SDS011;9862;49.462;11.054;2022-12-20T03:49:41;41.17;;;20.42;;
19446;SDS011;9862;49.462;11.054;2022-12-20T03:52:09;36.97;;;19.10;;
19446;SDS011;9862;49.462;11.054;2022-12-20T03:54:37;36.55;;;18.40;;
19446;SDS011;9862;49.462;11.054;2022-12-20T03:57:03;37.47;;;19.13;;
19446;SDS011;9862;49.462;11.054;2022-12-20T03:59:30;36.97;;;18.45;;
19446;SDS011;9862;49.462;11.054;2022-12-20T04:01:57;48.20;;;24.73;;
19446;SDS011;9862;49.462;11.054;2022-12-20T04:04:24;34.92;;;17.50;;
19446;SDS011;9862;49.462;11.054;2022-12-20T04:06:50;33.28;;;16.65;;
19446;SDS011;9862;49.462;11.054;2022-12-20T04:09:18;33.45;;;17.15;;
19446;SDS011;9862;49.462;11.054;2022-12-20T04:11:45;34.00;;;17.38;;
19446;SDS011;9862;49.462;11.054;2022-12-20T04:14:11;32.05;;;17.15;;
19446;SDS011;9862;49.462;11.054;2022-12-20T04:16:38;35.88;;;17.00;;
19446;SDS011;9862;49.462;11.054;2022-12-20T04:19:05;36.67;;;17.63;;
19446;SDS011;9862;49.462;11.054;2022-12-20T04:21:32;30.55;;;16.80;;
19446;SDS011;9862;49.462;11.054;2022-12-20T04:24:01;31.50;;;17.00;;
19446;SDS011;9862;49.462;11.054;2022-12-20T04:26:29;33.55;;;16.35;;
19446;SDS011;9862;49.462;11.054;2022-12-20T04:28:56;31.45;;;16.10;;
19446;SDS011;9862;49.462;11.054;2022-12-20T04:31:23;27.23;;;15.25;;
19446;SDS011;9862;49.462;11.054;2022-12-20T04:33:50;27.25;;;15.00;;
19446;SDS011;9862;49.462;11.054;2022-12-20T04:36:17;32.45;;;17.45;;
19446;SDS011;9862;49.462;11.054;2022-12-20T04:38:44;38.92;;;19.75;;
19446;SDS011;9862;49.462;11.054;2022-12-20T04:41:11;33.65;;;18.15;;
19446;SDS011;9862;49.462;11.054;2022-12-20T04:43:47;29.77;;;16.33;;
19446;SDS011;9862;49.462;11.054;2022-12-20T04:46:15;30.65;;;15.68;;
19446;SDS011;9862;49.462;11.054;2022-12-20T04:48:43;32.13;;;16.85;;
19446;SDS011;9862;49.462;11.054;2022-12-20T04:51:09;31.55;;;16.77;;
19446;SDS011;9862;49.462;11.054;2022-12-20T04:53:36;35.75;;;17.52;;
19446;SDS011;9862;49.462;11.054;2022-12-20T04:56:12;32.92;;;16.65;;
19446;SDS011;9862;49.462;11.054;2022-12-20T04:58:39;32.50;;;16.77;;
19446;SDS011;9862;49.462;11.054;2022-12-20T05:01:07;35.22;;;17.42;;
19446;SDS011;9862;49.462;11.054;2022-12-20T05:03:34;30.05;;;16.17;;
19446;SDS011;9862;49.462;11.054;2022-12-20T05:06:00;33.28;;;16.83;;
19446;SDS011;9862;49.462;11.054;2022-12-20T05:08:27;34.85;;;17.20;;
19446;SDS011;9862;49.462;11.054;2022-12-20T05:10:54;33.38;;;17.02;;
19446;SDS011;9862;49.462;11.054;2022-12-20T05:13:20;33.90;;;15.93;;
19446;SDS011;9862;49.462;11.054;2022-12-20T05:15:49;35.22;;;17.10;;
19446;SDS011;9862;49.462;11.054;2022-12-20T05:18:18;29.65;;;15.85;;
19446;SDS011;9862;49.462;11.054;2022-12-20T05:20:46;31.27;;;17.13;;
19446;SDS011;9862;49.462;11.054;2022-12-20T05:23:33;31.30;;;17.35;;
19446;SDS011;9862;49.462;11.054;2022-12-20T05:26:17;30.02;;;16.85;;
19446;SDS011;9862;49.462;11.054;2022-12-20T05:28:44;32.25;;;17.83;;
19446;SDS011;9862;49.462;11.054;2022-12-20T05:31:11;29.70;;;16.70;;
19446;SDS011;9862;49.462;11.054;2022-12-20T05:33:39;29.42;;;15.82;;
19446;SDS011;9862;49.462;11.054;2022-12-20T05:36:06;27.55;;;15.75;;
19446;SDS011;9862;49.462;11.054;2022-12-20T05:38:33;33.83;;;17.13;;
19446;SDS011;9862;49.462;11.054;2022-12-20T05:41:00;36.10;;;16.63;;
19446;SDS011;9862;49.462;11.054;2022-12-20T05:43:29;30.77;;;16.13;;
19446;SDS011;9862;49.462;11.054;2022-12-20T05:45:55;34.75;;;16.58;;
19446;SDS011;9862;49.462;11.054;2022-12-20T05:48:22;29.83;;;16.27;;
19446;SDS011;9862;49.462;11.054;2022-12-20T05:50:50;29.00;;;16.15;;
19446;SDS011;9862;49.462;11.054;2022-12-20T05:53:16;34.58;;;16.77;;
19446;SDS011;9862;49.462;11.054;2022-12-20T05:55:43;33.33;;;17.05;;
19446;SDS011;9862;49.462;11.054;2022-12-20T05:58:11;57.17;;;27.27;;
19446;SDS011;9862;49.462;11.054;2022-12-20T06:00:38;61.78;;;30.30;;
19446;SDS011;9862;49.462;11.054;2022-12-20T06:03:05;48.35;;;24.75;;
19446;SDS011;9862;49.462;11.054;2022-12-20T06:05:33;63.45;;;28.73;;
19446;SDS011;9862;49.462;11.054;2022-12-20T06:08:02;33.85;;;17.67;;
19446;SDS011;9862;49.462;11.054;2022-12-20T06:10:29;29.25;;;15.80;;
19446;SDS011;9862;49.462;11.054;2022-12-20T06:12:56;28.77;;;16.73;;
19446;SDS011;9862;49.462;11.054;2022-12-20T06:15:22;32.17;;;16.48;;
19446;SDS011;9862;49.462;11.054;2022-12-20T06:17:49;31.02;;;17.25;;
19446;SDS011;9862;49.462;11.054;2022-12-20T06:20:15;31.15;;;16.40;;
19446;SDS011;9862;49.462;11.054;2022-12-20T06:22:42;30.70;;;16.88;;
19446;SDS011;9862;49.462;11.054;2022-12-20T06:25:10;33.90;;;16.20;;
19446;SDS011;9862;49.462;11.054;2022-12-20T06:27:39;33.42;;;17.08;;
19446;SDS011;9862;49.462;11.054;2022-12-20T06:30:06;34.58;;;18.08;;
19446;SDS011;9862;49.462;11.054;2022-12-20T06:32:34;32.10;;;17.42;;
19446;SDS011;9862;49.462;11.054;2022-12-20T06:35:00;35.42;;;17.30;;
19446;SDS011;9862;49.462;11.054;2022-12-20T06:37:27;33.72;;;17.30;;
19446;SDS011;9862;49.462;11.054;2022-12-20T06:39:54;30.38;;;16.50;;
19446;SDS011;9862;49.462;11.054;2022-12-20T06:42:22;33.40;;;16.58;;
19446;SDS011;9862;49.462;11.054;2022-12-20T06:44:48;33.97;;;17.65;;
19446;SDS011;9862;49.462;11.054;2022-12-20T06:47:15;28.50;;;16.45;;
19446;SDS011;9862;49.462;11.054;2022-12-20T06:49:41;34.30;;;16.98;;
19446;SDS011;9862;49.462;11.054;2022-12-20T06:52:08;32.13;;;17.10;;
19446;SDS011;9862;49.462;11.054;2022-12-20T06:54:34;33.70;;;17.25;;
19446;SDS011;9862;49.462;11.054;2022-12-20T06:57:01;28.88;;;16.33;;
19446;SDS011;9862;49.462;11.054;2022-12-20T06:59:29;29.98;;;16.10;;
19446;SDS011;9862;49.462;11.054;2022-12-20T07:01:56;32.58;;;16.40;;
19446;SDS011;9862;49.462;11.054;2022-12-20T07:04:22;32.15;;;16.65;;
19446;SDS011;9862;49.462;11.054;2022-12-20T07:06:49;32.28;;;17.30;;
19446;SDS011;9862;49.462;11.054;2022-12-20T07:09:16;33.70;;;17.50;;
19446;SDS011;9862;49.462;11.054;2022-12-20T07:11:43;34.10;;;16.27;;
19446;SDS011;9862;49.462;11.054;2022-12-20T07:14:09;34.47;;;16.98;;
19446;SDS011;9862;49.462;11.054;2022-12-20T07:16:37;33.90;;;17.23;;
19446;SDS011;9862;49.462;11.054;2022-12-20T07:19:05;32.55;;;18.85;;
19446;SDS011;9862;49.462;11.054;2022-12-20T07:21:32;32.42;;;16.92;;
19446;SDS011;9862;49.462;11.054;2022-12-20T07:23:59;31.05;;;16.95;;
19446;SDS011;9862;49.462;11.054;2022-12-20T07:26:25;30.13;;;16.25;;
19446;SDS011;9862;49.462;11.054;2022-12-20T07:28:52;30.23;;;17.75;;
19446;SDS011;9862;49.462;11.054;2022-12-20T07:31:19;33.10;;;17.88;;
19446;SDS011;9862;49.462;11.054;2022-12-20T07:33:47;35.33;;;18.27;;
19446;SDS011;9862;49.462;11.054;2022-12-20T07:36:13;35.00;;;17.92;;
19446;SDS011;9862;49.462;11.054;2022-12-20T07:38:40;31.38;;;15.43;;
19446;SDS011;9862;49.462;11.054;2022-12-20T07:41:08;32.60;;;16.88;;
19446;SDS011;9862;49.462;11.054;2022-12-20T07:43:35;33.53;;;17.42;;
19446;SDS011;9862;49.462;11.054;2022-12-20T07:46:03;33.05;;;18.13;;
19446;SDS011;9862;49.462;11.054;2022-12-20T07:48:30;33.72;;;17.73;;
19446;SDS011;9862;49.462;11.054;2022-12-20T07:50:59;29.10;;;16.42;;
19446;SDS011;9862;49.462;11.054;2022-12-20T07:53:28;33.58;;;16.65;;
19446;SDS011;9862;49.462;11.054;2022-12-20T07:55:57;31.88;;;16.27;;
19446;SDS011;9862;49.462;11.054;2022-12-20T07:58:26;30.90;;;16.55;;
19446;SDS011;9862;49.462;11.054;2022-12-20T08:00:54;31.17;;;16.85;;
19446;SDS011;9862;49.462;11.054;2022-12-20T08:03:23;30.00;;;16.45;;
19446;SDS011;9862;49.462;11.054;2022-12-20T08:05:56;29.92;;;15.50;;
19446;SDS011;9862;49.462;11.054;2022-12-20T08:08:27;27.85;;;16.05;;
19446;SDS011;9862;49.462;11.054;2022-12-20T08:10:55;28.40;;;16.98;;
19446;SDS011;9862;49.462;11.054;2022-12-20T08:13:21;31.42;;;17.48;;
19446;SDS011;9862;49.462;11.054;2022-12-20T08:15:48;34.85;;;16.65;;
19446;SDS011;9862;49.462;11.054;2022-12-20T08:18:15;28.05;;;16.08;;
19446;SDS011;9862;49.462;11.054;2022-12-20T08:20:42;27.95;;;15.43;;
19446;SDS011;9862;49.462;11.054;2022-12-20T08:23:10;31.15;;;17.60;;
19446;SDS011;9862;49.462;11.054;2022-12-20T08:25:36;31.80;;;16.05;;
19446;SDS011;9862;49.462;11.054;2022-12-20T08:28:03;27.10;;;15.20;;
19446;SDS011;9862;49.462;11.054;2022-12-20T08:30:29;30.60;;;16.15;;
19446;SDS011;9862;49.462;11.054;2022-12-20T08:32:56;27.45;;;15.95;;
19446;SDS011;9862;49.462;11.054;2022-12-20T08:35:23;28.25;;;16.20;;
19446;SDS011;9862;49.462;11.054;2022-12-20T08:37:50;29.67;;;16.88;;
19446;SDS011;9862;49.462;11.054;2022-12-20T08:40:18;28.17;;;15.65;;
19446;SDS011;9862;49.462;11.054;2022-12-20T08:42:45;28.77;;;15.63;;
19446;SDS011;9862;49.462;11.054;2022-12-20T08:45:12;27.50;;;15.55;;
19446;SDS011;9862;49.462;11.054;2022-12-20T08:47:38;33.00;;;16.25;;
19446;SDS011;9862;49.462;11.054;2022-12-20T08:50:05;28.38;;;16.00;;
19446;SDS011;9862;49.462;11.054;2022-12-20T08:52:33;27.13;;;15.32;;
19446;SDS011;9862;49.462;11.054;2022-12-20T08:54:59;30.38;;;15.98;;
19446;SDS011;9862;49.462;11.054;2022-12-20T08:57:27;30.02;;;15.32;;
19446;SDS011;9862;49.462;11.054;2022-12-20T08:59:54;30.02;;;15.55;;
19446;SDS011;9862;49.462;11.054;2022-12-20T09:02:20;31.05;;;17.33;;
19446;SDS011;9862;49.462;11.054;2022-12-20T09:04:47;28.77;;;15.23;;
19446;SDS011;9862;49.462;11.054;2022-12-20T09:07:13;24.67;;;14.48;;
19446;SDS011;9862;49.462;11.054;2022-12-20T09:09:40;28.58;;;15.80;;
19446;SDS011;9862;49.462;11.054;2022-12-20T09:12:07;28.00;;;15.10;;
19446;SDS011;9862;49.462;11.054;2022-12-20T09:14:35;27.92;;;15.98;;
19446;SDS011;9862;49.462;11.054;2022-12-20T09:17:02;29.42;;;14.60;;
19446;SDS011;9862;49.462;11.054;2022-12-20T09:19:29;28.88;;;15.55;;
19446;SDS011;9862;49.462;11.054;2022-12-20T09:21:56;26.40;;;15.15;;
19446;SDS011;9862;49.462;11.054;2022-12-20T09:24:22;27.83;;;15.02;;
19446;SDS011;9862;49.462;11.054;2022-12-20T09:26:49;24.92;;;13.95;;
19446;SDS011;9862;49.462;11.054;2022-12-20T09:29:15;26.25;;;15.30;;
19446;SDS011;9862;49.462;11.054;2022-12-20T09:31:43;30.67;;;16.88;;
19446;SDS011;9862;49.462;11.054;2022-12-20T09:34:10;34.67;;;18.92;;
19446;SDS011;9862;49.462;11.054;2022-12-20T09:36:37;32.28;;;16.25;;
19446;SDS011;9862;49.462;11.054;2022-12-20T09:39:03;29.65;;;15.98;;
19446;SDS011;9862;49.462;11.054;2022-12-20T09:41:31;28.52;;;15.73;;
19446;SDS011;9862;49.462;11.054;2022-12-20T09:43:59;29.80;;;15.32;;
19446;SDS011;9862;49.462;11.054;2022-12-20T09:46:29;28.15;;;14.50;;
19446;SDS011;9862;49.462;11.054;2022-12-20T09:48:58;28.33;;;16.17;;
19446;SDS011;9862;49.462;11.054;2022-12-20T09:51:38;26.30;;;15.10;;
19446;SDS011;9862;49.462;11.054;2022-12-20T09:54:15;37.47;;;19.17;;
19446;SDS011;9862;49.462;11.054;2022-12-20T09:56:50;27.63;;;15.93;;
19446;SDS011;9862;49.462;11.054;2022-12-20T09:59:25;28.15;;;15.85;;
19446;SDS011;9862;49.462;11.054;2022-12-20T10:01:52;28.52;;;15.18;;
19446;SDS011;9862;49.462;11.054;2022-12-20T10:04:21;29.83;;;14.82;;
19446;SDS011;9862;49.462;11.054;2022-12-20T10:06:53;28.90;;;15.27;;
19446;SDS011;9862;49.462;11.054;2022-12-20T10:09:33;24.98;;;13.70;;
19446;SDS011;9862;49.462;11.054;2022-12-20T10:12:14;31.02;;;14.85;;
19446;SDS011;9862;49.462;11.054;2022-12-20T10:14:55;27.92;;;13.95;;
19446;SDS011;9862;49.462;11.054;2022-12-20T10:17:38;25.17;;;13.70;;
19446;SDS011;9862;49.462;11.054;2022-12-20T10:20:20;25.17;;;13.60;;
19446;SDS011;9862;49.462;11.054;2022-12-20T10:22:56;28.02;;;15.63;;
19446;SDS011;9862;49.462;11.054;2022-12-20T10:25:28;28.33;;;14.00;;
19446;SDS011;9862;49.462;11.054;2022-12-20T10:27:56;27.02;;;15.25;;
19446;SDS011;9862;49.462;11.054;2022-12-20T10:30:26;26.25;;;14.25;;
19446;SDS011;9862;49.462;11.054;2022-12-20T10:32:54;29.48;;;14.73;;
19446;SDS011;9862;49.462;11.054;2022-12-20T10:35:25;30.17;;;14.80;;
19446;SDS011;9862;49.462;11.054;2022-12-20T10:37:57;25.33;;;13.98;;
19446;SDS011;9862;49.462;11.054;2022-12-20T10:40:26;29.55;;;14.93;;
19446;SDS011;9862;49.462;11.054;2022-12-20T10:42:54;28.58;;;15.25;;
19446;SDS011;9862;49.462;11.054;2022-12-20T10:45:26;24.33;;;14.30;;
19446;SDS011;9862;49.462;11.054;2022-12-20T10:47:58;27.27;;;13.20;;
19446;SDS011;9862;49.462;11.054;2022-12-20T10:50:27;28.60;;;14.88;;
19446;SDS011;9862;49.462;11.054;2022-12-20T10:53:02;25.05;;;14.10;;
19446;SDS011;9862;49.462;11.054;2022-12-20T10:55:42;28.52;;;13.77;;
19446;SDS011;9862;49.462;11.054;2022-12-20T10:58:12;27.52;;;15.15;;
19446;SDS011;9862;49.462;11.054;2022-12-20T11:00:40;29.30;;;14.23;;
19446;SDS011;9862;49.462;11.054;2022-12-20T11:03:12;26.67;;;13.88;;
19446;SDS011;9862;49.462;11.054;2022-12-20T11:05:53;25.95;;;14.18;;
19446;SDS011;9862;49.462;11.054;2022-12-20T11:08:22;23.77;;;13.00;;
19446;SDS011;9862;49.462;11.054;2022-12-20T11:10:50;32.33;;;15.07;;
19446;SDS011;9862;49.462;11.054;2022-12-20T11:13:36;26.02;;;13.80;;
19446;SDS011;9862;49.462;11.054;2022-12-20T11:16:02;23.92;;;12.63;;
19446;SDS011;9862;49.462;11.054;2022-12-20T11:18:34;25.90;;;13.52;;
19446;SDS011;9862;49.462;11.054;2022-12-20T11:21:13;22.92;;;12.88;;
19446;SDS011;9862;49.462;11.054;2022-12-20T11:23:50;23.80;;;13.68;;
19446;SDS011;9862;49.462;11.054;2022-12-20T11:26:27;23.33;;;13.43;;
19446;SDS011;9862;49.462;11.054;2022-12-20T11:29:09;28.77;;;13.88;;
19446;SDS011;9862;49.462;11.054;2022-12-20T11:31:55;26.30;;;13.13;;
19446;SDS011;9862;49.462;11.054;2022-12-20T11:34:34;22.25;;;12.90;;
19446;SDS011;9862;49.462;11.054;2022-12-20T11:37:18;23.45;;;13.32;;
19446;SDS011;9862;49.462;11.054;2022-12-20T11:39:58;25.80;;;13.13;;
19446;SDS011;9862;49.462;11.054;2022-12-20T11:42:40;25.45;;;13.48;;
19446;SDS011;9862;49.462;11.054;2022-12-20T11:45:19;25.63;;;13.85;;
19446;SDS011;9862;49.462;11.054;2022-12-20T11:47:57;22.77;;;11.98;;
19446;SDS011;9862;49.462;11.054;2022-12-20T11:50:35;23.42;;;12.55;;
19446;SDS011;9862;49.462;11.054;2022-12-20T11:53:17;23.75;;;13.38;;
19446;SDS011;9862;49.462;11.054;2022-12-20T11:55:48;24.10;;;14.00;;
19446;SDS011;9862;49.462;11.054;2022-12-20T11:58:19;24.98;;;12.07;;
19446;SDS011;9862;49.462;11.054;2022-12-20T12:00:50;25.98;;;13.63;;
19446;SDS011;9862;49.462;11.054;2022-12-20T12:03:20;25.52;;;14.40;;
19446;SDS011;9862;49.462;11.054;2022-12-20T12:05:54;22.67;;;12.27;;
19446;SDS011;9862;49.462;11.054;2022-12-20T12:08:28;20.92;;;11.73;;
19446;SDS011;9862;49.462;11.054;2022-12-20T12:11:02;24.92;;;12.95;;
19446;SDS011;9862;49.462;11.054;2022-12-20T12:13:34;27.13;;;13.13;;
19446;SDS011;9862;49.462;11.054;2022-12-20T12:16:05;22.23;;;12.57;;
19446;SDS011;9862;49.462;11.054;2022-12-20T12:18:36;22.23;;;12.07;;
19446;SDS011;9862;49.462;11.054;2022-12-20T12:21:06;24.27;;;13.15;;
19446;SDS011;9862;49.462;11.054;2022-12-20T12:23:40;22.88;;;11.93;;
19446;SDS011;9862;49.462;11.054;2022-12-20T12:26:17;24.85;;;13.50;;
19446;SDS011;9862;49.462;11.054;2022-12-20T12:28:47;20.23;;;11.52;;
19446;SDS011;9862;49.462;11.054;2022-12-20T12:31:20;21.20;;;12.50;;
19446;SDS011;9862;49.462;11.054;2022-12-20T12:33:53;21.20;;;12.07;;
19446;SDS011;9862;49.462;11.054;2022-12-20T12:36:36;22.25;;;12.15;;
19446;SDS011;9862;49.462;11.054;2022-12-20T12:39:23;20.40;;;12.30;;
19446;SDS011;9862;49.462;11.054;2022-12-20T12:45:13;23.92;;;12.43;;
19446;SDS011;9862;49.462;11.054;2022-12-20T12:47:44;21.10;;;11.80;;
19446;SDS011;9862;49.462;11.054;2022-12-20T12:50:17;25.50;;;13.35;;
19446;SDS011;9862;49.462;11.054;2022-12-20T12:52:49;22.73;;;11.85;;
19446;SDS011;9862;49.462;11.054;2022-12-20T12:55:37;24.13;;;12.45;;
19446;SDS011;9862;49.462;11.054;2022-12-20T12:58:12;21.40;;;12.40;;
19446;SDS011;9862;49.462;11.054;2022-12-20T13:01:04;21.63;;;11.30;;
19446;SDS011;9862;49.462;11.054;2022-12-20T13:03:35;19.67;;;11.82;;
19446;SDS011;9862;49.462;11.054;2022-12-20T13:09:21;23.40;;;13.07;;
19446;SDS011;9862;49.462;11.054;2022-12-20T13:18:25;24.42;;;12.93;;
19446;SDS011;9862;49.462;11.054;2022-12-20T13:27:21;20.77;;;11.30;;
19446;SDS011;9862;49.462;11.054;2022-12-20T13:29:51;21.88;;;11.45;;
19446;SDS011;9862;49.462;11.054;2022-12-20T13:35:28;21.17;;;12.20;;
19446;SDS011;9862;49.462;11.054;2022-12-20T13:41:18;19.08;;;11.48;;
19446;SDS011;9862;49.462;11.054;2022-12-20T13:43:51;19.15;;;12.00;;
19446;SDS011;9862;49.462;11.054;2022-12-20T13:46:20;21.80;;;11.90;;
19446;SDS011;9862;49.462;11.054;2022-12-20T13:48:51;23.73;;;13.25;;
19446;SDS011;9862;49.462;11.054;2022-12-20T13:51:20;20.42;;;11.93;;
19446;SDS011;9862;49.462;11.054;2022-12-20T13:53:50;19.60;;;12.18;;
19446;SDS011;9862;49.462;11.054;2022-12-20T13:56:20;22.27;;;12.23;;
19446;SDS011;9862;49.462;11.054;2022-12-20T13:59:02;23.60;;;12.77;;
19446;SDS011;9862;49.462;11.054;2022-12-20T14:01:31;22.50;;;12.85;;
19446;SDS011;9862;49.462;11.054;2022-12-20T14:04:01;23.98;;;12.88;;
19446;SDS011;9862;49.462;11.054;2022-12-20T14:06:32;24.77;;;13.23;;
19446;SDS011;9862;49.462;11.054;2022-12-20T14:08:59;24.85;;;12.40;;
19446;SDS011;9862;49.462;11.054;2022-12-20T14:11:27;23.65;;;12.38;;
19446;SDS011;9862;49.462;11.054;2022-12-20T14:13:55;21.55;;;12.40;;
19446;SDS011;9862;49.462;11.054;2022-12-20T14:16:22;24.88;;;12.25;;
19446;SDS011;9862;49.462;11.054;2022-12-20T14:18:59;22.05;;;12.70;;
19446;SDS011;9862;49.462;11.054;2022-12-20T14:21:26;22.67;;;11.95;;
19446;SDS011;9862;49.462;11.054;2022-12-20T14:23:55;24.45;;;12.00;;
19446;SDS011;9862;49.462;11.054;2022-12-20T14:26:25;19.65;;;11.38;;
19446;SDS011;9862;49.462;11.054;2022-12-20T14:28:54;23.02;;;12.25;;
19446;SDS011;9862;49.462;11.054;2022-12-20T14:31:23;19.60;;;12.30;;
19446;SDS011;9862;49.462;11.054;2022-12-20T14:33:59;22.45;;;12.65;;
19446;SDS011;9862;49.462;11.054;2022-12-20T14:36:28;21.45;;;11.82;;
19446;SDS011;9862;49.462;11.054;2022-12-20T14:38:57;21.42;;;12.00;;
19446;SDS011;9862;49.462;11.054;2022-12-20T14:41:34;24.30;;;11.73;;
19446;SDS011;9862;49.462;11.054;2022-12-20T14:44:02;21.08;;;11.93;;
19446;SDS011;9862;49.462;11.054;2022-12-20T14:46:38;25.67;;;11.70;;
19446;SDS011;9862;49.462;11.054;2022-12-20T14:49:12;19.50;;;11.77;;
19446;SDS011;9862;49.462;11.054;2022-12-20T14:51:43;21.23;;;12.18;;
19446;SDS011;9862;49.462;11.054;2022-12-20T14:54:14;23.27;;;13.00;;
19446;SDS011;9862;49.462;11.054;2022-12-20T14:56:43;23.23;;;12.80;;
19446;SDS011;9862;49.462;11.054;2022-12-20T14:59:12;24.23;;;13.95;;
19446;SDS011;9862;49.462;11.054;2022-12-20T15:01:40;22.25;;;12.55;;
19446;SDS011;9862;49.462;11.054;2022-12-20T15:04:21;23.38;;;12.82;;
19446;SDS011;9862;49.462;11.054;2022-12-20T15:06:49;19.83;;;12.15;;
19446;SDS011;9862;49.462;11.054;2022-12-20T15:09:18;25.30;;;13.85;;